Oaks, Texas
Current Conditions -  °F | °C
As of 5:52 PM on Monday 20 Oct 2014 (Local Time) from KNFW Reporting Station
Scattered Clouds Scattered Clouds  
Wind Chill: 82°   Ceiling: Unl
Heat Index: 82°   Visibility: 10mi
Dew Point: 56°   Wind: 7mph
Humidity: 41%   Direction: 110°ESE
Pressure: 30.04"   Gusts: NA
Location:  32.7763°N, 97.4092°W
Report Text: KNFW 202252Z 11006KT 10SM FEW050 SCT250 28/13 A3004 RMK AO2 SLP156 T02780133 VISNO N $
Loading
Personal Weather Stations






























Interactive Weather Map
Tropical Storm Tracking
New forecast layout! Learn more

10-Day Weather Forecast

Advertisements
Track Severe Weather on mobile